• Join FlightAware (Why Join?)
  • Login
  • US Flag 
03:28PM EDT


 

Airport Tracker/Info


-or-


 

Live Flight TrackerFlight Track Log ✈ EJA951 ✈ 13-May-2013 ✈ KSUX - KMKE

Flight Track Log - Related Links

Times and Time Zones

All times are in EDT time to prevent confusion due to time zone crossing. See the EJA951 flight status page for this flight to view local times or setup timezone preferences in your user account.

Time Position Orientation Groundspeed Altitude Reporting Facility
EDT Latitude Longitude Course Direction KTS MPH feet Rate Location/Type
12:28AM 42.3606 -96.3761 145° Southeast 201 231 3,200  Level Minneapolis Center
12:29AM 42.3086 -96.3261 145° Southeast 238 274 5,700 2,520 Climbing Minneapolis Center
12:30AM 42.3239 -96.2256 78° East 270 311 8,300 2,460 Climbing Minneapolis Center
12:31AM 42.3386 -96.1189 79° East 281 323 10,700 1,680 Climbing Minneapolis Center
12:32AM 42.3553 -95.9900 80° East 323 372 11,800 1,320 Climbing Minneapolis Center
12:33AM 42.3756 -95.8472 79° East 378 435 13,400 1,440 Climbing Minneapolis Center
12:34AM 42.3939 -95.7006 80° East 391 450 15,000 1,740 Climbing Minneapolis Center
12:35AM 42.4181 -95.5217 80° East 398 458 17,300 1,980 Climbing Minneapolis Center
12:36AM 42.4375 -95.3669 80° East 409 471 19,000 1,560 Climbing Minneapolis Center
12:37AM 42.4575 -95.2114 80° East 415 478 20,500 1,560 Climbing Minneapolis Center
12:38AM 42.4775 -95.0489 80° East 432 497 22,200 1,620 Climbing Minneapolis Center
12:39AM 42.4978 -94.8836 80° East 442 509 23,800 1,560 Climbing Minneapolis Center
12:40AM 42.5181 -94.7164 81° East 449 517 25,400 1,500 Climbing Minneapolis Center
12:41AM 42.5372 -94.5528 81° East 459 528 26,900 1,380 Climbing Minneapolis Center
12:42AM 42.5578 -94.3800 81° East 468 539 28,300 1,320 Climbing Minneapolis Center
12:43AM 42.5783 -94.2031 81° East 478 550 29,900 1,680 Climbing Minneapolis Center
12:44AM 42.6042 -93.9872 81° East 487 560 32,100 2,100 Climbing Minneapolis Center
12:45AM 42.6211 -93.8433 81° East 488 562 33,800 1,560 Climbing Minneapolis Center
12:46AM 42.6411 -93.6594 82° East 494 568 35,000 600 Climbing Minneapolis Center
12:47AM 42.6678 -93.4219 81° East 529 609 35,000  Level Minneapolis Center
12:48AM 42.6878 -93.2214 82° East 540 621 35,000  Level Minneapolis Center
12:49AM 42.6942 -93.0189 87° East 542 624 35,000  Level Minneapolis Center
12:50AM 42.6975 -92.8147 89° East 544 626 35,000  Level Minneapolis Center
12:52AM 42.7019 -92.6125 88° East 543 625 35,000  Level Minneapolis Center
12:53AM 42.7061 -92.3675 89° East 543 625 35,000  Level Minneapolis Center
12:54AM 42.7103 -92.1236 89° East 545 627 35,000  Level Minneapolis Center
12:55AM 42.7133 -91.9228 89° East 542 624 35,000  Level Minneapolis Center
12:56AM 42.7153 -91.7197 89° East 541 623 35,000  Level Minneapolis Center
12:57AM 42.7186 -91.5156 89° East 542 624 35,000  Level Minneapolis Center
12:58AM 42.7200 -91.3281 89° East 548 631 35,000  Level Chicago Center
12:59AM 42.7214 -91.1244 89° East 546 628 35,000  Level Chicago Center
01:00AM 42.7228 -90.9217 89° East 544 626 35,000  Level Chicago Center
01:01AM 42.7233 -90.7169 90° East 547 629 35,000  Level Chicago Center
01:02AM 42.7233 -90.5119 90° East 547 629 35,000  Level Chicago Center
01:03AM 42.7219 -90.3075 90° East 548 631 35,000 -360 Level Chicago Center
01:04AM 42.7217 -90.1028 90° East 547 629 34,300 -1,920 Descending Chicago Center
01:05AM 42.7217 -89.8803 90° East 544 626 31,200 -3,000 Descending Chicago Center
01:06AM 42.7206 -89.6744 90° East 545 627 28,300 -2,820 Descending Chicago Center
01:07AM 42.7192 -89.4800 90° East 520 598 25,600 -2,700 Descending Chicago Center
01:08AM 42.7172 -89.2861 91° East 516 594 22,900 -2,700 Descending Chicago Center
01:09AM 42.7164 -89.1017 90° East 492 566 20,300 -2,520 Descending Chicago Center
01:10AM 42.7147 -88.9275 91° East 467 537 17,900 -2,400 Descending Chicago Center
01:11AM 42.7122 -88.7622 91° East 445 512 15,500 -2,040 Descending Chicago Center
01:12AM 42.7228 -88.6150 84° East 388 447 13,900 -1,860 Descending Chicago Center
01:13AM 42.7617 -88.4900 67° East 361 415 11,800 -2,220 Descending Chicago Center
01:14AM 42.7994 -88.3789 65° Northeast 330 380 9,500 -2,280 Descending Chicago Center
01:15AM 42.8342 -88.2714 66° East 314 361 7,300 -2,160 Descending Chicago Center
01:16AM 42.8681 -88.1669 66° East 302 348 5,200 -2,160 Descending Chicago Center
01:16AM 42.8833 -88.1167 67° East 254 292 4,200 -1,740 Descending KMKE
01:17AM 42.9167 -88.0333 61° Northeast 198 228 2,700 -1,200 Descending KMKE
01:18AM 42.9167 -87.9833 90° East 149 171 1,800 -840 Descending KMKE
01:19AM 42.9333 -87.9333 66° East 127 146 1,100 -720 Descending KMKE
01:22AM 42.9333 -87.8833 56° Northeast  Level FlightAware Approximate